Time;durP1;ratioP1;P1;durP2;ratioP2;P2;SDS_P1;SDS_P2;PMS_P1;PMS_P2;Temp;Humidity;BMP_temperature;BMP_pressure;BME280_temperature;BME280_humidity;BME280_pressure;Samples;Min_cycle;Max_cycle;Signal;HPM_P1;HPM_P2
2023/07/20 00:01:50;;;;;;;;;;;23.70;55.30;;;23.83;37.35;98505.59;4983788;28;124220;-82
2023/07/20 00:04:18;;;;;;;;;;;23.60;55.00;;;23.78;37.22;98506.84;4986719;28;124515;-82
2023/07/20 00:06:45;;;;;;;;;;;24.50;55.60;;;23.74;37.05;98511.69;4986132;28;119773;-82
2023/07/20 00:09:11;;;;;;;;;;;23.60;54.70;;;23.69;36.92;98510.03;4987201;28;118688;-82
2023/07/20 00:11:38;;;;;;;;;;;23.50;54.40;;;23.65;36.93;98506.44;4985345;28;124812;-82
2023/07/20 00:14:05;;;;;;;;;;;23.50;54.30;;;23.58;36.54;98506.44;4983879;28;123913;-83
2023/07/20 00:16:31;;;;;;;;;;;23.40;53.90;;;23.52;36.46;98510.91;4986015;28;119834;-82
2023/07/20 00:19:01;;;;;;;;;;;23.40;53.70;;;23.46;36.61;98506.91;4985334;28;118886;-83
2023/07/20 00:21:27;;;;;;;;;;;23.30;53.60;;;23.43;36.35;98505.69;4987152;28;124252;-83
2023/07/20 00:23:53;;;;;;;;;;;23.30;53.70;;;23.42;36.00;98506.09;4984071;28;124330;-83
2023/07/20 00:26:20;;;;;;;;;;;23.30;53.40;;;23.40;36.05;98511.31;4985942;28;119400;-82
2023/07/20 00:28:48;;;;;;;;;;;23.20;53.10;;;23.37;35.95;98512.94;4985536;28;119685;-83
2023/07/20 00:31:14;;;;;;;;;;;23.20;53.00;;;23.34;35.66;98520.19;4986915;28;124726;-83
2023/07/20 00:33:41;;;;;;;;;;;23.10;52.80;;;23.32;35.65;98516.16;4981428;28;124141;-82
2023/07/20 00:36:07;;;;;;;;;;;23.10;52.60;;;23.27;35.61;98508.16;4990051;28;119293;-82
2023/07/20 00:38:33;;;;;;;;;;;23.10;52.50;;;23.21;35.72;98510.53;4990536;28;119467;-83
2023/07/20 00:40:59;;;;;;;;;;;23.10;52.50;;;23.17;35.61;98521.03;4988363;28;123539;-83
2023/07/20 00:43:26;;;;;;;;;;;23.00;52.40;;;23.12;35.62;98515.78;4986622;28;124162;-83
2023/07/20 00:45:54;;;;;;;;;;;22.90;52.30;;;23.07;35.60;98519.03;4985754;28;120106;-83
2023/07/20 00:48:21;;;;;;;;;;;22.90;52.40;;;23.04;35.59;98525.47;4985575;28;118337;-83
2023/07/20 00:50:48;;;;;;;;;;;22.90;52.40;;;23.03;35.79;98512.59;4971051;28;123774;-83
2023/07/20 00:53:14;;;;;;;;;;;22.80;52.40;;;23.02;35.71;98522.25;4988664;28;122919;-83
2023/07/20 00:55:40;;;;;;;;;;;22.80;52.40;;;22.96;35.78;98521.00;4987262;28;119317;-83
2023/07/20 00:58:10;;;;;;;;;;;22.80;52.40;;;22.89;36.04;98519.81;4986414;28;119976;-83
2023/07/20 01:00:36;;;;;;;;;;;22.70;52.40;;;22.87;35.88;98527.84;4972363;28;123902;-83
2023/07/20 01:03:02;;;;;;;;;;;22.70;52.40;;;22.87;36.10;98518.59;4987017;28;124105;-83
2023/07/20 01:06:21;;;;;;;;;;;22.70;52.60;;;22.85;36.25;98515.38;4985962;28;119226;-84
2023/07/20 01:08:56;;;;;;;;;;;22.60;52.70;;;22.90;36.16;98526.25;4977915;28;119284;-83
2023/07/20 01:12:06;;;;;;;;;;;22.70;53.00;;;22.89;36.25;98521.78;4986560;28;124825;-83
2023/07/20 01:14:32;;;;;;;;;;;22.70;53.00;;;22.88;36.08;98515.38;4961648;28;124219;-83
2023/07/20 01:16:59;;;;;;;;;;;22.60;52.90;;;22.89;36.13;98516.16;4986861;28;120056;-83
2023/07/20 01:19:27;;;;;;;;;;;22.60;53.00;;;22.87;36.42;98524.25;4988166;28;118544;-82
2023/07/20 01:21:59;;;;;;;;;;;22.60;53.00;;;22.80;36.22;98527.84;4975344;28;123863;-83
2023/07/20 01:24:28;;;;;;;;;;;22.60;53.10;;;22.75;36.59;98531.06;4982424;28;124599;-83
2023/07/20 01:27:11;;;;;;;;;;;22.60;53.20;;;22.73;36.40;98525.03;4987340;28;118698;-83
2023/07/20 01:30:02;;;;;;;;;;;22.50;53.30;;;22.71;36.58;98530.25;4987707;28;118096;-83
2023/07/20 01:32:29;;;;;;;;;;;22.50;53.40;;;22.70;36.63;98523.00;4965711;28;124425;-83
2023/07/20 01:34:56;;;;;;;;;;;22.50;53.40;;;22.65;36.92;98509.34;4966580;28;123722;-83
2023/07/20 01:37:27;;;;;;;;;;;22.50;53.60;;;22.62;36.79;98522.22;4986989;28;119811;-83
2023/07/20 01:39:57;;;;;;;;;;;22.40;53.60;;;22.59;36.52;98519.38;4971549;28;117948;-82
2023/07/20 01:42:24;;;;;;;;;;;22.40;53.70;;;22.54;37.29;98519.75;4968781;28;124078;-83
2023/07/20 01:44:52;;;;;;;;;;;22.40;53.90;;;22.49;37.17;98518.16;4982219;28;124019;-83
2023/07/20 01:47:19;;;;;;;;;;;22.30;54.00;;;22.46;37.45;98519.75;4984432;28;120421;-83
2023/07/20 01:49:45;;;;;;;;;;;22.20;54.10;;;22.44;37.24;98522.16;4984860;28;119607;-83
2023/07/20 01:52:11;;;;;;;;;;;22.20;54.20;;;22.41;37.51;98520.16;4977297;28;123276;-83
2023/07/20 01:54:38;;;;;;;;;;;22.20;54.40;;;22.35;37.75;98518.09;4969512;28;123661;-84
2023/07/20 01:57:04;;;;;;;;;;;22.20;54.50;;;22.30;38.02;98527.78;4988907;28;118607;-83
2023/07/20 01:59:30;;;;;;;;;;;22.10;54.60;;;22.28;37.66;98535.81;4981516;28;118598;-83
2023/07/20 02:01:59;;;;;;;;;;;22.10;54.80;;;22.23;38.12;98524.94;4986502;28;123906;-83
2023/07/20 02:04:25;;;;;;;;;;;22.10;55.10;;;22.16;38.33;98522.84;4984781;28;123179;-83
2023/07/20 02:06:52;;;;;;;;;;;22.00;55.20;;;22.10;38.18;98529.28;4985415;28;119781;-83
2023/07/20 02:09:18;;;;;;;;;;;21.90;55.20;;;22.05;38.40;98533.25;4985511;28;118955;-83
2023/07/20 02:11:44;;;;;;;;;;;21.90;55.40;;;22.02;38.37;98525.63;4979663;28;124300;-83
2023/07/20 02:14:10;;;;;;;;;;;21.90;55.50;;;21.99;38.72;98530.03;4984248;28;123955;-83
2023/07/20 02:16:37;;;;;;;;;;;21.80;55.50;;;21.96;38.69;98527.22;4985853;28;119681;-83
2023/07/20 02:19:06;;;;;;;;;;;21.80;55.70;;;21.92;38.98;98527.19;4986679;28;118796;-83
2023/07/20 02:21:35;;;;;;;;;;;21.80;55.90;;;21.89;39.04;98527.16;4984026;28;124406;-83
2023/07/20 02:24:01;;;;;;;;;;;21.70;56.00;;;21.86;39.21;98525.16;4985200;28;124020;-83
2023/07/20 02:26:28;;;;;;;;;;;21.70;56.10;;;21.83;39.06;98521.91;4982159;28;118426;-84
2023/07/20 02:28:54;;;;;;;;;;;21.70;56.40;;;21.78;39.44;98532.75;4971764;28;119951;-84
2023/07/20 02:31:20;;;;;;;;;;;21.60;56.50;;;21.71;39.27;98527.06;4985942;28;124484;-83
2023/07/20 02:33:47;;;;;;;;;;;21.60;56.60;;;21.64;39.47;98524.25;4985311;28;123944;-83
2023/07/20 02:36:13;;;;;;;;;;;21.50;56.80;;;21.57;39.77;98519.38;4983545;28;121021;-84
2023/07/20 02:38:39;;;;;;;;;;;21.50;56.90;;;21.54;40.11;98526.59;4985424;28;119649;-84
2023/07/20 02:41:06;;;;;;;;;;;21.40;56.90;;;21.53;40.00;98524.19;4970337;28;123622;-84
2023/07/20 02:43:32;;;;;;;;;;;21.40;57.20;;;21.51;39.87;98533.00;4984873;28;123911;-84
2023/07/20 02:45:58;;;;;;;;;;;21.30;57.10;;;21.49;40.00;98526.94;4986861;28;118196;-84
2023/07/20 02:48:24;;;;;;;;;;;21.30;57.30;;;21.45;40.34;98528.94;4971858;28;118714;-84
2023/07/20 02:50:50;;;;;;;;;;;21.30;57.40;;;21.42;40.17;98529.75;4983125;28;124589;-84
2023/07/20 02:53:17;;;;;;;;;;;21.30;57.60;;;21.39;40.11;98541.78;4973613;28;124362;-84
2023/07/20 02:55:43;;;;;;;;;;;21.20;57.60;;;21.38;40.47;98537.34;4981789;28;119449;-84
2023/07/20 02:58:09;;;;;;;;;;;21.20;57.80;;;21.35;40.27;98538.09;4985374;28;118646;-84
2023/07/20 03:00:36;;;;;;;;;;;21.20;57.90;;;21.32;40.41;98536.06;4983764;28;124198;-84
2023/07/20 03:03:02;;;;;;;;;;;21.10;58.00;;;21.30;40.96;98544.06;4985258;28;124162;-84
2023/07/20 03:05:31;;;;;;;;;;;21.90;58.90;;;21.24;40.93;98543.63;4982224;28;118222;-84
2023/07/20 03:08:02;;;;;;;;;;;21.10;58.40;;;21.21;40.73;98547.22;4970715;28;118887;-84
2023/07/20 03:10:28;;;;;;;;;;;21.00;58.40;;;21.20;40.85;98551.25;4984096;28;124670;-84
2023/07/20 03:12:55;;;;;;;;;;;21.00;58.50;;;21.19;40.75;98541.19;4973064;28;123995;-84
2023/07/20 03:15:21;;;;;;;;;;;21.00;58.50;;;21.21;40.89;98535.97;4987623;28;118496;-84
2023/07/20 03:17:48;;;;;;;;;;;21.00;58.70;;;21.24;41.15;98556.88;4985940;28;117877;-84
2023/07/20 03:20:14;;;;;;;;;;;21.00;58.90;;;21.28;41.04;98554.88;4985694;28;124185;-84
2023/07/20 03:22:40;;;;;;;;;;;21.00;58.90;;;21.27;41.06;98539.22;4987589;28;124761;-83
2023/07/20 03:25:07;;;;;;;;;;;21.00;58.90;;;21.26;41.05;98548.88;4987585;28;121146;-84
2023/07/20 03:27:34;;;;;;;;;;;21.00;58.90;;;21.23;40.88;98549.66;4970983;28;119003;-84
2023/07/20 03:30:00;;;;;;;;;;;21.00;59.10;;;21.18;41.05;98554.44;4986636;28;123981;-84
2023/07/20 03:32:27;;;;;;;;;;;21.00;59.20;;;21.16;41.29;98556.00;4979440;28;124082;-83
2023/07/20 03:34:53;;;;;;;;;;;20.90;59.20;;;21.12;41.39;98561.63;4970656;28;118730;-83
2023/07/20 03:37:19;;;;;;;;;;;20.90;59.60;;;21.12;41.66;98561.63;4990192;28;118154;-84
2023/07/20 03:39:45;;;;;;;;;;;20.90;59.60;;;21.14;41.60;98570.47;4986651;28;124741;-83
2023/07/20 03:42:12;;;;;;;;;;;20.90;59.70;;;21.16;41.21;98559.63;4987624;28;123350;-84
2023/07/20 03:44:38;;;;;;;;;;;20.90;59.70;;;21.19;41.52;98563.66;4986828;28;120253;-83
2023/07/20 03:47:07;;;;;;;;;;;20.90;59.80;;;21.18;41.45;98565.66;4989295;28;118079;-83
2023/07/20 03:49:36;;;;;;;;;;;20.90;59.80;;;21.18;41.73;98565.66;4973384;28;124029;-84
2023/07/20 03:52:03;;;;;;;;;;;21.00;60.00;;;21.18;41.54;98560.06;5003462;28;123186;-84
2023/07/20 03:54:29;;;;;;;;;;;20.90;59.90;;;21.17;41.45;98558.44;4987672;28;119507;-84
2023/07/20 03:56:55;;;;;;;;;;;20.90;60.00;;;21.20;41.68;98568.09;4987904;28;118659;-83
2023/07/20 03:59:22;;;;;;;;;;;20.90;60.20;;;21.21;41.66;98557.66;4982267;28;124552;-84
2023/07/20 04:01:48;;;;;;;;;;;20.90;60.30;;;21.22;41.66;98564.88;4983985;28;123888;-83
2023/07/20 04:04:17;;;;;;;;;;;20.90;60.30;;;21.24;41.80;98562.50;4987775;28;119478;-83
2023/07/20 04:06:46;;;;;;;;;;;20.90;60.50;;;21.27;41.56;98567.34;4987635;28;118479;-82
2023/07/20 04:09:13;;;;;;;;;;;20.90;60.60;;;21.31;41.62;98565.38;4986710;28;124293;-83
2023/07/20 04:11:40;;;;;;;;;;;21.00;61.10;;;21.37;41.88;98561.00;4983756;28;124489;-83
2023/07/20 04:14:06;;;;;;;;;;;21.00;60.70;;;21.40;41.87;98577.09;4977510;28;119899;-83
2023/07/20 04:16:33;;;;;;;;;;;21.00;60.80;;;21.39;41.35;98570.69;4988318;28;119645;-83
2023/07/20 04:18:59;;;;;;;;;;;21.00;60.70;;;21.39;41.43;98581.13;4987215;28;124906;-83
2023/07/20 04:21:27;;;;;;;;;;;21.00;60.70;;;21.37;41.70;98578.69;4990987;28;124108;-83
2023/07/20 04:23:55;;;;;;;;;;;21.00;60.70;;;21.37;41.51;98577.84;4971876;28;119249;-81
2023/07/20 04:26:25;;;;;;;;;;;21.00;60.70;;;21.36;41.66;98579.06;4983912;28;118791;-83
2023/07/20 04:28:53;;;;;;;;;;;21.00;60.80;;;21.38;41.95;98582.31;4990001;28;124141;-83
2023/07/20 04:31:20;;;;;;;;;;;21.00;60.90;;;21.42;41.47;98574.72;4985244;28;124379;-82
2023/07/20 04:33:48;;;;;;;;;;;21.10;61.10;;;21.46;42.07;98572.72;4991256;28;119538;-82
2023/07/20 04:36:19;;;;;;;;;;;21.10;61.10;;;21.51;41.35;98569.53;4986154;28;118423;-82
2023/07/20 04:38:45;;;;;;;;;;;21.10;61.10;;;21.52;41.59;98574.00;4997543;28;124270;-83
2023/07/20 04:41:12;;;;;;;;;;;21.20;61.30;;;21.51;41.62;98572.34;4987218;28;124008;-82
2023/07/20 04:43:45;;;;;;;;;;;21.20;61.20;;;21.51;41.55;98583.59;4987033;28;120004;-82
2023/07/20 04:46:11;;;;;;;;;;;21.10;61.10;;;21.51;41.37;98575.16;4983394;28;118915;-81
2023/07/20 04:48:38;;;;;;;;;;;21.20;61.20;;;21.50;41.53;98573.56;4987326;28;124194;-82
2023/07/20 04:51:04;;;;;;;;;;;21.20;61.30;;;21.46;41.64;98564.28;4985975;28;124467;-81
2023/07/20 04:53:30;;;;;;;;;;;21.20;61.50;;;21.45;42.13;98570.31;4986050;28;119585;-82
2023/07/20 04:55:57;;;;;;;;;;;21.10;61.40;;;21.44;41.84;98571.50;4987745;28;118852;-82
2023/07/20 04:58:23;;;;;;;;;;;21.10;61.50;;;21.46;41.88;98569.91;4982428;28;124640;-81
2023/07/20 05:00:50;;;;;;;;;;;21.10;61.60;;;21.47;41.83;98577.16;4976427;28;123885;-81
2023/07/20 05:03:16;;;;;;;;;;;21.20;61.70;;;21.47;42.05;98574.34;4986441;28;120310;-81
2023/07/20 05:05:43;;;;;;;;;;;21.20;61.90;;;21.46;42.00;98586.78;4984098;28;120983;-82
2023/07/20 05:08:09;;;;;;;;;;;21.10;61.90;;;21.47;42.11;98585.59;4987860;28;124264;-81
2023/07/20 05:10:35;;;;;;;;;;;21.10;62.00;;;21.50;42.12;98575.56;4983924;28;123781;-81
2023/07/20 05:13:02;;;;;;;;;;;21.10;62.10;;;21.54;42.06;98582.00;4989321;28;119906;-81
2023/07/20 05:15:28;;;;;;;;;;;21.20;62.20;;;21.56;42.12;98574.00;4986483;28;119106;-81
2023/07/20 05:17:54;;;;;;;;;;;21.20;62.20;;;21.59;42.46;98576.81;4982423;28;124151;-81
2023/07/20 05:20:21;;;;;;;;;;;21.20;62.30;;;21.62;41.97;98561.97;4988330;28;123962;-81
2023/07/20 05:22:47;;;;;;;;;;;21.20;62.30;;;21.67;42.00;98577.69;4986360;28;119707;-81
2023/07/20 05:25:17;;;;;;;;;;;21.30;62.40;;;21.73;42.23;98578.13;4985318;28;119150;-81
2023/07/20 05:27:43;;;;;;;;;;;21.30;62.40;;;21.80;42.00;98578.97;4968290;28;123793;-80
2023/07/20 05:30:10;;;;;;;;;;;21.60;62.80;;;21.87;42.19;98578.22;4969848;28;124110;-82
2023/07/20 05:32:36;;;;;;;;;;;21.40;62.50;;;21.94;42.27;98575.41;4985992;28;119695;-81
2023/07/20 05:35:03;;;;;;;;;;;21.50;62.50;;;22.00;41.98;98568.22;4986660;28;118815;-81
2023/07/20 05:37:29;;;;;;;;;;;21.50;62.50;;;22.07;41.97;98578.69;4984209;28;125094;-81
2023/07/20 05:39:56;;;;;;;;;;;21.60;62.60;;;22.14;41.58;98566.66;4983675;28;124118;-82
2023/07/20 05:42:22;;;;;;;;;;;21.60;62.50;;;22.19;41.69;98571.94;4984955;28;119689;-81
2023/07/20 05:44:52;;;;;;;;;;;21.70;62.60;;;22.20;41.82;98570.75;4983251;28;118673;-81
2023/07/20 05:47:19;;;;;;;;;;;21.70;62.40;;;22.19;41.30;98569.13;4985766;28;125890;-84
2023/07/20 05:49:45;;;;;;;;;;;21.70;62.40;;;22.19;41.31;98574.75;4980480;28;124032;-84
2023/07/20 05:52:17;;;;;;;;;;;21.80;62.40;;;22.20;41.81;98571.56;4986284;28;121012;-93
2023/07/20 05:54:46;;;;;;;;;;;21.80;62.50;;;22.21;41.82;98575.16;4984478;28;120382;-85
2023/07/20 05:57:13;;;;;;;;;;;21.80;62.60;;;22.24;41.76;98572.34;4988244;28;123024;-83
2023/07/20 05:59:43;;;;;;;;;;;21.80;62.60;;;22.28;41.71;98564.75;4984780;28;123730;-85
2023/07/20 06:02:10;;;;;;;;;;;21.80;62.50;;;22.31;41.43;98571.59;4987965;28;119910;-84
2023/07/20 06:04:39;;;;;;;;;;;21.90;62.60;;;22.34;41.32;98576.41;4984949;28;118535;-84
2023/07/20 06:07:08;;;;;;;;;;;21.90;62.70;;;22.37;41.28;98574.81;4984981;28;123758;-84
2023/07/20 06:09:34;;;;;;;;;;;21.90;62.50;;;22.39;41.46;98580.88;4985344;28;124065;-83
2023/07/20 06:12:00;;;;;;;;;;;22.00;62.50;;;22.42;41.69;98569.63;4983734;28;119162;-84
2023/07/20 06:14:27;;;;;;;;;;;22.00;62.50;;;22.45;41.31;98577.25;4980991;28;118657;-83
2023/07/20 06:16:53;;;;;;;;;;;22.10;62.50;;;22.49;41.36;98574.47;4981295;28;124476;-83
2023/07/20 06:19:19;;;;;;;;;;;22.10;62.50;;;22.49;41.34;98578.09;4977078;28;123856;-84
2023/07/20 06:21:45;;;;;;;;;;;22.10;62.40;;;22.57;41.65;98586.53;4980346;28;119335;-84
2023/07/20 06:24:12;;;;;;;;;;;22.20;62.70;;;22.61;41.36;98576.09;4978697;28;118561;-83
2023/07/20 06:26:39;;;;;;;;;;;22.20;62.80;;;22.65;41.40;98582.56;4983234;28;124076;-83
2023/07/20 06:29:08;;;;;;;;;;;22.20;62.70;;;22.70;41.34;98587.78;4987403;28;123005;-83
2023/07/20 06:31:35;;;;;;;;;;;22.30;63.00;;;22.71;41.46;98586.59;4984565;28;119699;-82
2023/07/20 06:34:02;;;;;;;;;;;22.30;62.80;;;22.68;41.50;98576.94;4985463;28;119008;-83
2023/07/20 06:36:28;;;;;;;;;;;22.30;62.90;;;22.67;41.50;98569.66;4985469;28;124977;-83
2023/07/20 06:38:58;;;;;;;;;;;22.30;63.00;;;22.71;41.56;98583.78;4984879;28;123840;-83
2023/07/20 06:41:24;;;;;;;;;;;22.30;63.10;;;22.74;41.78;98577.34;4984902;28;119357;-84
2023/07/20 06:43:52;;;;;;;;;;;22.30;63.20;;;22.77;41.63;98575.72;4966662;28;118797;-83
2023/07/20 06:46:18;;;;;;;;;;;22.30;63.20;;;22.80;41.55;98578.53;4963274;28;123810;-83
2023/07/20 06:48:44;;;;;;;;;;;22.40;63.30;;;22.85;41.72;98572.50;4979521;28;124262;-83
2023/07/20 06:51:11;;;;;;;;;;;22.40;63.40;;;22.87;41.68;98575.75;4963447;28;118860;-85
2023/07/20 06:53:37;;;;;;;;;;;22.40;63.30;;;22.89;41.30;98573.34;4982259;28;118371;-82
2023/07/20 06:56:04;;;;;;;;;;;22.50;63.40;;;22.92;41.38;98566.91;4978452;28;124630;-85
2023/07/20 06:58:30;;;;;;;;;;;22.50;63.50;;;22.98;41.39;98566.53;4978163;28;124355;-82
2023/07/20 07:00:56;;;;;;;;;;;22.50;63.40;;;23.05;41.38;98569.34;4983773;28;119309;-85
2023/07/20 07:03:22;;;;;;;;;;;22.60;63.40;;;23.07;41.20;98572.56;4982179;28;118533;-84
2023/07/20 07:05:49;;;;;;;;;;;22.60;63.30;;;23.01;41.22;98571.38;4981291;28;124246;-82
2023/07/20 07:08:16;;;;;;;;;;;22.60;63.20;;;23.00;41.38;98581.00;4969762;28;122993;-85
2023/07/20 07:10:43;;;;;;;;;;;22.60;63.30;;;23.03;41.34;98564.13;4981468;28;119289;-84
2023/07/20 07:13:10;;;;;;;;;;;22.60;63.30;;;23.11;41.33;98574.19;4952951;28;118149;-84
2023/07/20 07:15:36;;;;;;;;;;;22.70;63.40;;;23.17;41.00;98565.34;4984817;28;125151;-84
2023/07/20 07:18:03;;;;;;;;;;;22.70;63.10;;;23.24;41.31;98568.13;4985099;28;124639;-83
2023/07/20 07:20:29;;;;;;;;;;;22.80;63.30;;;23.32;40.92;98564.91;4985761;28;119618;-83
2023/07/20 07:22:56;;;;;;;;;;;22.80;63.20;;;23.39;40.99;98569.75;4983406;28;118432;-83
2023/07/20 07:25:23;;;;;;;;;;;22.90;64.00;;;23.46;40.58;98564.09;4983957;28;123705;-84
2023/07/20 07:27:50;;;;;;;;;;;22.90;63.10;;;23.53;40.57;98563.28;4983088;28;124135;-85
2023/07/20 07:30:18;;;;;;;;;;;23.00;63.00;;;23.59;40.43;98562.47;4983428;28;120344;-86
2023/07/20 07:32:47;;;;;;;;;;;23.10;62.80;;;23.68;40.34;98559.22;4959666;28;119717;-84
2023/07/20 07:35:13;;;;;;;;;;;23.10;62.80;;;23.77;40.17;98562.44;4976502;28;122665;-83
2023/07/20 07:37:39;;;;;;;;;;;23.20;62.70;;;23.82;40.21;98558.41;4985334;28;122971;-84
2023/07/20 07:40:06;;;;;;;;;;;23.20;62.40;;;23.90;39.94;98553.53;4985027;28;118356;-83
2023/07/20 07:42:33;;;;;;;;;;;23.30;62.30;;;23.97;39.55;98564.81;4978198;28;118677;-83
2023/07/20 07:44:59;;;;;;;;;;;23.40;61.90;;;23.98;39.32;98555.13;4970406;28;124058;-84
2023/07/20 07:47:25;;;;;;;;;;;23.40;61.30;;;23.98;38.98;98550.28;4978615;28;124216;-83
2023/07/20 07:49:51;;;;;;;;;;;25.00;62.40;;;24.01;38.99;98563.56;4978512;28;118676;-83
2023/07/20 07:52:18;;;;;;;;;;;23.50;61.00;;;24.04;38.80;98553.47;4984295;28;118745;-84
2023/07/20 07:54:46;;;;;;;;;;;23.50;60.60;;;24.03;38.81;98558.34;4983535;28;124696;-83
2023/07/20 07:57:13;;;;;;;;;;;23.60;60.70;;;24.08;38.91;98554.28;4981643;28;123554;-83
2023/07/20 07:59:40;;;;;;;;;;;23.60;60.80;;;24.12;39.36;98543.78;4979523;28;119538;-84
2023/07/20 08:02:06;;;;;;;;;;;23.60;60.50;;;24.11;38.80;98547.03;4984901;28;117793;-83
2023/07/20 08:04:32;;;;;;;;;;;23.70;60.40;;;24.14;38.80;98538.53;4969211;28;124064;-83
2023/07/20 08:07:01;;;;;;;;;;;23.70;60.40;;;24.15;38.97;98548.63;4991029;28;123943;-83
2023/07/20 08:09:28;;;;;;;;;;;23.70;60.30;;;24.17;38.18;98557.47;4972413;28;119475;-84
2023/07/20 08:11:54;;;;;;;;;;;23.70;59.50;;;24.16;37.88;98541.75;4986349;28;118996;-84
2023/07/20 08:14:20;;;;;;;;;;;23.70;59.00;;;24.16;37.89;98544.56;4988353;28;124754;-83
2023/07/20 08:16:47;;;;;;;;;;;23.70;58.80;;;24.16;37.80;98546.59;4984028;28;123954;-84
2023/07/20 08:19:13;;;;;;;;;;;23.70;58.40;;;24.19;37.44;98538.09;4973097;28;119848;-84
2023/07/20 08:21:40;;;;;;;;;;;23.80;58.50;;;24.28;37.70;98545.31;4955182;28;118080;-82
2023/07/20 08:24:07;;;;;;;;;;;23.80;58.50;;;24.30;37.39;98540.06;4987407;28;123616;-81
2023/07/20 08:26:33;;;;;;;;;;;23.90;58.60;;;24.30;37.23;98548.53;4987078;28;124146;-83
2023/07/20 08:29:02;;;;;;;;;;;23.90;58.20;;;24.25;37.50;98547.75;4986522;28;119564;-83
2023/07/20 08:31:28;;;;;;;;;;;23.80;57.90;;;24.27;37.60;98543.72;4985569;28;118688;-83
2023/07/20 08:33:57;;;;;;;;;;;23.90;58.40;;;24.27;37.66;98547.34;4981433;28;124227;-85
2023/07/20 08:36:23;;;;;;;;;;;23.90;58.70;;;24.21;38.02;98552.63;4976693;28;123251;-83
2023/07/20 08:38:50;;;;;;;;;;;23.90;58.70;;;24.19;37.86;98557.88;4984644;28;119491;-82
2023/07/20 08:41:16;;;;;;;;;;;23.80;58.70;;;24.20;37.86;98555.84;4982974;28;118954;-83
2023/07/20 08:43:46;;;;;;;;;;;23.90;58.80;;;24.28;37.80;98545.31;4983813;28;124378;-83
2023/07/20 08:46:13;;;;;;;;;;;23.90;59.10;;;24.34;38.08;98546.50;4975905;28;125188;-84
2023/07/20 08:48:41;;;;;;;;;;;25.50;60.30;;;24.40;37.22;98547.69;4984675;28;119727;-82
2023/07/20 08:51:09;;;;;;;;;;;24.00;58.50;;;24.46;37.10;98537.59;4980588;28;118732;-84
2023/07/20 08:53:38;;;;;;;;;;;24.00;58.00;;;24.55;37.19;98549.22;4989386;28;124209;-84
2023/07/20 08:56:05;;;;;;;;;;;24.10;58.10;;;24.57;37.12;98546.81;4986241;28;124279;-83
2023/07/20 08:58:31;;;;;;;;;;;24.10;58.00;;;24.56;37.14;98545.22;4986843;28;119640;-84
2023/07/20 09:00:59;;;;;;;;;;;24.10;58.10;;;24.57;37.53;98552.44;4985962;28;118567;-83
2023/07/20 09:03:25;;;;;;;;;;;24.10;58.20;;;24.61;36.78;98536.28;4981542;28;124272;-85
2023/07/20 09:05:52;;;;;;;;;;;24.20;57.90;;;24.64;36.45;98529.81;4981026;28;124577;-84
2023/07/20 09:08:18;;;;;;;;;;;24.20;56.90;;;24.68;36.48;98536.22;4975289;28;120627;-84
2023/07/20 09:10:47;;;;;;;;;;;24.20;57.20;;;24.71;36.14;98534.59;4977973;28;119629;-84
2023/07/20 09:13:18;;;;;;;;;;;24.20;56.80;;;24.71;36.04;98536.63;4970115;28;125033;-84
2023/07/20 09:15:48;;;;;;;;;;;24.30;56.30;;;24.67;35.66;98534.63;4983362;28;122932;-84
2023/07/20 09:18:32;;;;;;;;;;;24.30;56.00;;;24.66;35.51;98541.50;4984508;28;119567;-84
2023/07/20 09:21:06;;;;;;;;;;;24.30;55.80;;;24.65;35.46;98542.72;4975224;28;118483;-82
2023/07/20 09:23:37;;;;;;;;;;;24.30;55.40;;;24.65;35.23;98530.63;4980547;28;124316;-87
2023/07/20 09:26:13;;;;;;;;;;;24.30;55.00;;;24.67;34.76;98540.28;4984644;28;124114;-85
2023/07/20 09:28:50;;;;;;;;;;;24.30;54.40;;;24.69;34.62;98528.59;4996108;28;119808;-82
2023/07/20 09:31:21;;;;;;;;;;;25.80;55.50;;;24.68;35.03;98524.94;4976731;28;119470;-83
2023/07/20 09:33:48;;;;;;;;;;;24.30;54.80;;;24.64;35.28;98540.31;4970244;28;123943;-83
2023/07/20 09:36:14;;;;;;;;;;;24.30;55.30;;;24.61;35.62;98536.28;4981938;28;124647;-83
2023/07/20 09:38:43;;;;;;;;;;;25.50;56.00;;;24.60;35.64;98537.50;4986698;28;118490;-84
2023/07/20 09:41:15;;;;;;;;;;;24.30;54.90;;;24.58;34.93;98537.13;4971692;28;118127;-83
2023/07/20 09:43:42;;;;;;;;;;;24.30;54.60;;;24.56;34.80;98533.91;4979190;28;124390;-84
2023/07/20 09:46:09;;;;;;;;;;;24.20;53.90;;;24.59;34.56;98527.44;4975616;28;123738;-82
2023/07/20 09:48:35;;;;;;;;;;;24.20;53.70;;;24.62;34.23;98522.97;4982296;28;120008;-84
2023/07/20 09:51:02;;;;;;;;;;;24.30;53.50;;;24.66;34.36;98524.56;4955753;28;117924;-83
2023/07/20 09:53:28;;;;;;;;;;;24.30;53.60;;;24.74;34.18;98521.66;4981561;28;124163;-82
2023/07/20 09:55:55;;;;;;;;;;;24.30;53.30;;;24.79;33.81;98524.06;4984309;28;123968;-80
2023/07/20 09:58:24;;;;;;;;;;;24.40;53.10;;;24.82;33.59;98520.38;4979498;28;120653;-83
2023/07/20 10:00:51;;;;;;;;;;;24.40;52.50;;;24.85;33.51;98511.06;4984779;28;119880;-83
2023/07/20 10:03:22;;;;;;;;;;;24.40;52.40;;;24.88;33.50;98533.69;4984763;28;123955;-83
2023/07/20 10:06:08;;;;;;;;;;;24.50;52.30;;;24.89;32.97;98509.84;4978192;28;124100;-84
2023/07/20 10:08:39;;;;;;;;;;;24.50;52.00;;;24.92;33.33;98508.22;4983601;28;119276;-82
2023/07/20 10:11:07;;;;;;;;;;;24.50;52.10;;;24.93;32.95;98521.09;4982717;28;118477;-81
2023/07/20 10:13:38;;;;;;;;;;;24.50;51.90;;;24.98;33.15;98520.66;4976306;28;124620;-84
2023/07/20 10:16:10;;;;;;;;;;;24.50;51.80;;;24.98;32.76;98512.19;4979799;28;124865;-83
2023/07/20 10:19:01;;;;;;;;;;;24.50;51.40;;;24.95;32.20;98496.06;4982766;28;119513;-83
2023/07/20 10:21:30;;;;;;;;;;;24.60;50.70;;;24.97;32.07;98501.31;4983802;28;117992;-82
2023/07/20 10:23:59;;;;;;;;;;;24.60;50.20;;;25.00;31.51;98511.78;4982249;28;123958;-82
2023/07/20 10:26:26;;;;;;;;;;;24.60;49.70;;;25.01;31.77;98497.25;4983204;28;124597;-83
2023/07/20 10:28:55;;;;;;;;;;;24.50;49.80;;;25.01;31.39;98502.91;4982128;28;119270;-83
2023/07/20 10:31:23;;;;;;;;;;;24.60;49.30;;;25.02;31.43;98493.19;4982153;28;118685;-82
2023/07/20 10:33:50;;;;;;;;;;;24.60;49.20;;;25.03;31.47;98494.78;4982613;28;124545;-83
2023/07/20 10:36:25;;;;;;;;;;;24.70;49.20;;;25.06;31.38;98495.97;4965700;28;123578;-82
2023/07/20 10:38:57;;;;;;;;;;;24.70;49.20;;;25.09;31.30;98498.78;4969496;28;120045;-83
2023/07/20 10:41:31;;;;;;;;;;;24.70;48.90;;;25.07;31.02;98472.94;4947158;28;118125;-84
2023/07/20 10:44:07;;;;;;;;;;;24.70;48.60;;;25.10;30.95;98488.28;4995436;28;124421;-82
2023/07/20 10:46:42;;;;;;;;;;;24.70;48.60;;;25.14;31.04;98484.16;4980619;28;124437;-82
2023/07/20 10:49:09;;;;;;;;;;;24.70;48.70;;;25.23;31.03;98478.06;4986055;28;120278;-83
2023/07/20 10:51:41;;;;;;;;;;;24.80;48.60;;;25.31;30.48;98468.28;4984893;28;120081;-82
2023/07/20 10:54:16;;;;;;;;;;;24.90;48.40;;;25.34;30.03;98487.25;4980268;28;124283;-83
2023/07/20 10:56:44;;;;;;;;;;;24.90;47.60;;;25.33;30.05;98476.34;4971454;28;124027;-83
2023/07/20 10:59:20;;;;;;;;;;;24.90;47.50;;;25.31;30.35;98470.34;4974808;28;120265;-83
2023/07/20 11:01:49;;;;;;;;;;;24.90;47.80;;;25.37;30.17;98471.47;4982434;28;117894;-82
2023/07/20 11:04:18;;;;;;;;;;;24.90;47.20;;;25.40;29.47;98467.00;4982102;28;124640;-82
2023/07/20 11:06:45;;;;;;;;;;;25.00;46.60;;;25.38;29.52;98467.41;4979896;28;124263;-82
2023/07/20 11:09:16;;;;;;;;;;;24.90;46.20;;;25.40;29.17;98459.31;4979237;28;119357;-83
2023/07/20 11:11:44;;;;;;;;;;;25.00;46.20;;;25.47;29.64;98467.72;4973276;28;118950;-82
2023/07/20 11:14:21;;;;;;;;;;;25.00;46.30;;;25.52;28.92;98458.78;4981168;28;125059;-84